Current Weather

Palm Springs Intl

Palm Springs, California (KPSP)

Report from: Sunday, September 25, 2022 7:53 PM PDT
Current time: Sunday, September 25, 2022 8:47 PM PDT

Nearby weather
Weather history
Weather forecast

Temperature37.8°C (100.0°F)
Heat index36.8°C (98.2°F)
Dew point12.2°C (54.0°F)
Winds 5 kts (2.6 m/s, 5.8 mph) West-Northwest (300°)
Visibility10 mi. (16.1 km)
Clouds Sky clear
Altimeter29.84 in.Hg (1010 mB)
Relative humidity22 %
Density altitude2,865 ft. (873 m)
Sea-level pressure101.0 kPa (1010 mB, 29.82 in.Hg)
Remarks Automated weather observing station with precipitation discriminator
Pressure rising more quickly
Flight conditions Visual Meteorological Conditions
Raw dataKPSP 260253Z 30005KT 10SM CLR 38/12 A2984 RMK AO2 SLP098 T03780122 53006
An error has occurred. This application may no longer respond until reloaded. Reload 🗙